Terminal Aerodrome Forecast
Issued by NWS Albuquerque, NM

Home | Current Version | Previous Version | Text Only | Print | Product List | Glossary On
Versions: 1 2 3 4 5 6 7 8 9 10 11 12
000
FTUS45 KABQ 292340
TAFABQ
TAF
KABQ 292340Z 3000/3024 21011G20KT P6SM SCT140
     FM300200 20008KT P6SM FEW150
     FM300500 14007KT P6SM SKC
     FM301400 VRB04KT P6SM SKC
     FM301800 23006KT P6SM FEW150
     FM302100 20011G20KT P6SM SCT150=

USA.gov is the U.S. government's official web portal to all federal, state and local government web resources and services.